Disclaimer

Please do not use the information listed here in-flight or in-navigation, as they are not provided to us by the airports but are provided by volunteers, so they might be outdated.

Search


Regions


Airport information page

No radio frequency information is available.

Airport informations:
Latitude: 49° 12' 28.61" N
Longitude: 002° 11' 43.83" W
Elevation: 277 feet - 84 meters
Operating hours: Remarks
Operating agency: Civil government, landing fees and diplomatic clearance may be required
Timezone: UTC 0(+1DT) - Last Sunday in March to last Sunday in October
Fuel: Jet A1, without icing nhibitor.

100/130 MIL Spec, low lead, aviation gasoline (BLUE)

Runway information:
09/27 - 5597 x 151 feet< - >1706 x 46 meters

Recent METARs:
EGJJ 210320Z AUTO 20017KT 9999 BKN022/// OVC025/// 06/02 Q1003
EGJJ 210350Z AUTO 19013KT 9999 BKN020/// OVC023/// 06/03 Q1004
EGJJ 210420Z AUTO 19015KT 9999 FEW018/// BKN021/// BKN024/// 06/03 Q1004

Airport on the map: